Latest Weather Observations for Warwick

IDQ60901

Issued at 5:21 pm EST Friday 28 August 2015 (issued every 10 minutes, with the page automatically refreshed every 10 minutes)

About weather observations | Map of Brisbane area stations | Latest observations for Brisbane area | Other Formats
Station Details ID: 041525 Name: WARWICK Lat: -28.21 Lon: 152.10 Height: 475.4 m
Data from the previous 72 hours. | See also: Recent months at Warwick
Date/Time
EST
Tmp

°C
App
Tmp
°C
Dew
Point
°C
Rel
Hum
%
Delta-T

°C
Wind Press
QNH
hPa
Press
MSL
hPa
Rain
since
9 am
mm
Dir
 
Spd
km/h
Gust
km/h
Spd
kts
Gust
kts
28/05:00pm 16.8 13.5 4.3 43 6.0 WSW 11 17 6 9 1020.4 1020.3 0.2
28/04:30pm 17.6 13.5 4.4 41 6.4 SW 15 24 8 13 1020.1 1020.0 0.2
28/04:00pm 18.0 14.2 3.9 39 6.8 WSW 13 19 7 10 1019.9 1019.8 0.2
28/03:30pm 17.8 13.1 3.3 38 6.9 SW 17 26 9 14 1019.8 1019.6 0.2
28/03:00pm 17.8 12.5 3.0 37 7.0 SW 20 30 11 16 1019.9 1019.8 0.2
28/02:30pm 18.1 12.9 3.7 38 6.9 WSW 20 33 11 18 1019.9 1019.8 0.2
28/02:00pm 17.8 11.9 3.8 39 6.7 SW 24 33 13 18 1020.3 1020.2 0.2
28/01:30pm 17.7 13.0 3.4 38 6.8 WSW 17 26 9 14 1020.6 1020.5 0.2
28/01:00pm 17.6 12.4 2.3 36 7.1 WSW 19 28 10 15 1021.1 1021.0 0.2
28/12:30pm 17.5 12.2 4.8 43 6.2 SW 22 32 12 17 1021.3 1021.2 0.2
28/12:00pm 17.7 13.2 5.9 46 5.9 SW 19 30 10 16 1021.8 1021.7 0.2
28/11:30am 17.4 13.2 5.7 46 5.8 WSW 17 32 9 17 1022.4 1022.3 0.2
28/11:00am 16.7 12.3 5.0 46 5.7 WSW 17 30 9 16 1022.9 1022.8 0.2
28/10:30am 16.2 11.5 5.9 50 5.1 SW 20 32 11 17 1023.2 1023.1 0.2
28/10:00am 15.3 10.9 6.4 55 4.4 WSW 19 26 10 14 1023.3 1023.2 0.2
28/09:30am 15.0 11.2 6.0 55 4.4 WSW 15 24 8 13 1023.3 1023.2 0.2
28/09:00am 14.2 12.2 7.0 62 3.6 SW 7 13 4 7 1023.4 1023.4 6.8
28/08:30am 13.5 11.7 9.3 76 2.2 WSW 9 13 5 7 1023.3 1023.2 6.8
28/08:00am 12.4 12.3 10.9 90 0.8 S 2 7 1 4 1023.1 1023.0 6.8
28/07:30am 11.6 11.9 10.8 95 0.4 CALM 0 0 0 0 1023.1 1023.0 6.8
28/07:00am 11.1 11.3 10.5 96 0.3 CALM 0 0 0 0 1022.7 1022.6 6.8
28/06:30am 9.5 9.4 9.5 100 0.0 CALM 0 0 0 0 1022.3 1022.2 6.8
28/06:00am 10.2 10.2 9.8 97 0.2 CALM 0 0 0 0 1022.0 1021.9 6.8
28/05:30am 10.6 10.7 10.0 96 0.3 CALM 0 0 0 0 1021.4 1021.3 6.8
28/05:00am 11.5 11.7 10.7 95 0.4 CALM 0 0 0 0 1021.1 1021.0 6.8
28/04:30am 11.7 12.0 10.9 95 0.4 CALM 0 0 0 0 1021.1 1021.0 6.8
28/04:00am 12.1 12.4 11.0 93 0.6 CALM 0 0 0 0 1021.1 1021.0 6.8
28/03:30am 12.2 11.8 11.1 93 0.6 NW 4 7 2 4 1021.0 1020.9 6.8
28/03:00am 12.3 11.5 11.2 93 0.6 NNW 6 9 3 5 1021.0 1020.9 6.8
28/02:30am 12.6 10.9 11.1 91 0.8 NW 11 19 6 10 1021.0 1020.9 6.6
28/02:00am 12.4 12.6 11.7 95 0.4 NNE 2 7 1 4 1021.1 1021.0 6.6
28/01:30am 12.5 11.7 11.6 94 0.5 NW 7 11 4 6 1021.3 1021.2 6.6
28/01:00am 12.5 11.8 11.4 93 0.6 NW 6 9 3 5 1021.7 1021.6 6.6
28/12:30am 12.7 11.5 11.6 93 0.6 NNW 9 13 5 7 1021.7 1021.6 6.6
28/12:00am 12.6 12.7 11.5 93 0.6 NNW 2 6 1 3 1021.8 1021.7 6.4
 
Date/Time
EST
Tmp

°C
App
Tmp
°C
Dew
Point
°C
Rel
Hum
%
Delta-T

°C
Wind Press
QNH
hPa
Press
MSL
hPa
Rain
since
9 am
mm
Dir
 
Spd
km/h
Gust
km/h
Spd
kts
Gust
kts
27/11:30pm 12.6 11.8 11.7 94 0.5 WNW 7 15 4 8 1021.7 1021.6 5.8
27/11:00pm 12.8 11.7 12.1 95 0.4 WNW 9 13 5 7 1022.0 1021.9 4.8
27/10:30pm 12.9 12.4 12.2 95 0.4 WNW 6 11 3 6 1021.7 1021.6 4.8
27/10:00pm 13.0 12.5 12.5 97 0.3 WNW 7 13 4 7 1022.0 1021.9 4.4
27/09:30pm 13.0 12.5 12.5 97 0.3 NNW 7 11 4 6 1021.9 1021.8 4.4
27/09:00pm 13.1 12.5 12.4 95 0.4 WNW 7 11 4 6 1021.8 1021.7 4.4
27/08:30pm 13.3 12.8 12.2 93 0.6 NW 6 11 3 6 1021.8 1021.7 4.2
27/08:00pm 13.4 12.3 12.1 92 0.7 NW 9 13 5 7 1021.4 1021.3 4.2
27/07:30pm 13.4 12.7 12.1 92 0.7 NNW 7 11 4 6 1021.0 1020.9 4.2
27/07:00pm 13.4 12.3 12.1 92 0.7 NNW 9 11 5 6 1020.9 1020.8 4.2
27/06:30pm 13.4 12.0 12.1 92 0.7 NNW 11 15 6 8 1020.4 1020.3 4.2
27/06:00pm 13.5 11.8 12.4 93 0.6 NNW 13 17 7 9 1020.5 1020.4 4.2
27/05:30pm 13.5 12.9 12.4 93 0.6 NNW 7 11 4 6 1020.2 1020.1 4.2
27/05:00pm 13.5 13.4 12.2 92 0.7 NW 4 9 2 5 1019.8 1019.6 4.2
27/04:30pm 13.4 13.7 12.1 92 0.7 NW 2 6 1 3 1019.7 1019.5 4.2
27/04:00pm 13.4 13.2 11.9 91 0.8 NNW 4 11 2 6 1019.8 1019.6 4.2
27/03:30pm 13.4 12.3 12.1 92 0.7 N 9 13 5 7 1019.9 1019.8 4.2
27/03:00pm 12.9 11.6 11.4 91 0.8 N 9 15 5 8 1019.9 1019.8 4.0
27/02:30pm 12.7 11.9 11.2 91 0.8 N 6 9 3 5 1020.1 1020.0 3.6
27/02:00pm 13.2 11.9 11.4 89 1.0 NNE 9 13 5 7 1020.1 1020.0 2.4
27/01:30pm 13.5 13.8 10.9 84 1.4 CALM 0 0 0 0 1020.0 1019.9 2.2
27/01:00pm 13.4 13.7 10.8 84 1.4 CALM 0 7 0 4 1020.5 1020.4 2.0
27/12:30pm 12.9 13.1 10.4 85 1.3 CALM 0 0 0 0 1021.2 1021.1 1.8
27/12:00pm 12.8 12.8 9.7 81 1.6 CALM 0 0 0 0 1021.8 1021.7 1.6
27/11:30am 12.6 12.5 9.3 80 1.7 CALM 0 0 0 0 1022.2 1022.1 1.6
27/11:00am 12.6 12.5 9.5 81 1.6 CALM 0 0 0 0 1022.6 1022.5 1.2
27/10:30am 12.7 12.6 9.6 81 1.6 CALM 0 0 0 0 1022.7 1022.6 0.8
27/10:00am 13.0 12.3 8.5 74 2.3 W 2 7 1 4 1022.8 1022.7 0.2
27/09:30am 13.4 11.7 8.5 72 2.5 WSW 7 11 4 6 1023.1 1023.0 0.0
27/09:00am 12.6 11.1 9.3 80 1.7 WSW 7 11 4 6 1023.4 1023.4 0.0
27/08:30am 11.6 10.4 9.5 87 1.1 SW 6 7 3 4 1023.0 1022.9 0.0
27/08:00am 11.2 9.7 9.2 87 1.0 SW 7 9 4 5 1022.9 1022.8 0.0
27/07:30am 11.0 9.5 8.6 85 1.2 SW 6 9 3 5 1022.7 1022.6 0.0
27/07:00am 10.8 10.0 8.2 84 1.3 ENE 2 6 1 3 1022.2 1022.1 0.0
27/06:30am 10.4 8.7 8.4 87 1.0 NE 7 9 4 5 1022.1 1022.0 0.0
27/06:00am 10.6 7.9 7.5 81 1.5 N 11 15 6 8 1022.0 1021.9 0.0
27/05:30am 9.9 9.4 7.9 87 1.0 CALM 0 0 0 0 1021.8 1021.7 0.0
27/05:00am 9.5 9.0 7.9 90 0.8 CALM 0 0 0 0 1021.7 1021.6 0.0
27/04:30am 9.8 8.8 7.3 84 1.2 WSW 2 7 1 4 1022.0 1021.9 0.0
27/04:00am 9.8 9.1 7.1 83 1.3 CALM 0 0 0 0 1021.9 1021.8 0.0
27/03:30am 9.4 8.3 6.9 84 1.2 S 2 6 1 3 1021.5 1021.4 0.0
27/03:00am 9.4 7.9 6.9 84 1.2 SSW 4 6 2 3 1021.7 1021.6 0.0
27/02:30am 9.5 8.9 7.2 85 1.1 CALM 0 0 0 0 1021.7 1021.6 0.0
27/02:00am 9.2 7.9 7.6 90 0.8 ENE 4 9 2 5 1021.8 1021.7 0.0
27/01:30am 8.8 6.7 6.5 85 1.1 NNE 7 9 4 5 1021.9 1021.8 0.0
27/01:00am 7.7 5.3 6.9 95 0.4 ENE 9 11 5 6 1021.5 1021.4 0.0
27/12:30am 10.1 8.4 6.1 76 1.9 WNW 4 9 2 5 1021.9 1021.8 0.0
27/12:00am 8.0 7.1 6.1 88 0.9 CALM 0 6 0 3 1022.2 1022.1 0.0
 
Date/Time
EST
Tmp

°C
App
Tmp
°C
Dew
Point
°C
Rel
Hum
%
Delta-T

°C
Wind Press
QNH
hPa
Press
MSL
hPa
Rain
since
9 am
mm
Dir
 
Spd
km/h
Gust
km/h
Spd
kts
Gust
kts
26/11:30pm 8.4 7.6 6.3 87 1.0 CALM 0 6 0 3 1022.1 1022.0 0.0
26/11:00pm 9.1 8.3 6.6 84 1.2 CALM 0 0 0 0 1022.2 1022.1 0.0
26/10:30pm 10.4 8.4 6.4 76 1.9 NE 6 7 3 4 1022.4 1022.3 0.0
26/10:00pm 9.2 7.2 7.1 87 1.0 ENE 7 11 4 6 1022.4 1022.3 0.0
26/09:30pm 10.7 10.1 7.2 79 1.7 CALM 0 0 0 0 1022.5 1022.4 0.0
26/09:00pm 12.1 10.0 5.6 64 3.1 NW 6 7 3 4 1022.7 1022.6 0.0
26/08:30pm 11.2 10.4 6.4 72 2.3 CALM 0 0 0 0 1022.5 1022.4 0.0
26/08:00pm 12.0 11.1 6.0 66 2.9 CALM 0 0 0 0 1022.5 1022.4 0.0
26/07:30pm 14.3 12.6 6.1 58 4.0 WNW 4 7 2 4 1022.3 1022.2 0.0
26/07:00pm 14.6 12.3 5.8 55 4.3 W 7 11 4 6 1021.7 1021.6 0.0
26/06:30pm 15.8 12.8 4.3 46 5.5 W 9 13 5 7 1021.1 1021.0 0.0
26/06:00pm 16.6 13.5 3.5 41 6.2 W 9 13 5 7 1020.6 1020.5 0.0
26/05:30pm 17.7 14.1 2.8 37 7.0 WNW 11 15 6 8 1020.1 1020.0 0.0
26/05:00pm 19.4 16.3 3.7 35 7.6 WNW 9 13 5 7 1019.7 1019.5 0.0
26/04:30pm 20.5 17.1 4.0 33 8.1 WNW 11 17 6 9 1019.6 1019.4 0.0
26/04:00pm 20.8 16.9 3.6 32 8.4 W 13 20 7 11 1019.2 1019.1 0.0
26/03:30pm 21.4 17.7 4.3 32 8.5 W 13 20 7 11 1019.5 1019.3 0.0
26/03:00pm 21.0 16.4 3.6 32 8.5 WNW 17 24 9 13 1019.1 1019.0 0.0
26/02:30pm 21.2 17.0 3.7 31 8.6 WNW 15 24 8 13 1019.2 1019.1 0.0
26/02:00pm 21.4 16.2 2.7 29 9.0 WNW 19 30 10 16 1019.8 1019.6 0.0
26/01:30pm 21.1 16.2 1.9 28 9.1 WNW 17 26 9 14 1020.0 1019.9 0.0
26/01:00pm 20.9 16.6 3.4 31 8.5 WNW 15 24 8 13 1020.2 1020.1 0.0
26/12:30pm 20.3 16.1 4.0 34 8.0 WNW 15 20 8 11 1020.6 1020.5 0.0
26/12:00pm 20.2 16.4 3.8 34 8.0 WNW 13 24 7 13 1021.0 1020.9 0.0
26/11:30am 19.0 16.7 5.6 41 6.7 NNW 7 17 4 9 1021.3 1021.2 0.0
26/11:00am 17.7 13.9 5.9 46 5.9 WNW 15 24 8 13 1022.1 1022.0 0.0
26/10:30am 17.0 13.5 5.4 46 5.7 WNW 13 20 7 11 1022.4 1022.3 0.0
26/10:00am 16.5 13.7 6.8 52 4.9 WNW 11 19 6 10 1022.4 1022.3 0.0
26/09:30am 15.5 13.1 6.9 56 4.3 WNW 9 15 5 8 1022.5 1022.4 0.0
26/09:00am 14.8 12.5 7.5 61 3.7 WNW 9 17 5 9 1022.7 1022.6 0.0
26/08:30am 13.4 10.2 6.7 64 3.3 NW 13 19 7 10 1022.6 1022.5 0.0
26/08:00am 12.8 9.6 6.9 67 2.9 NW 13 19 7 10 1022.3 1022.2 0.0
26/07:30am 11.8 9.5 7.6 75 2.1 NNW 9 15 5 8 1022.1 1022.0 0.0
26/07:00am 11.5 8.0 7.4 76 2.0 NNW 15 22 8 12 1021.7 1021.6 0.0
26/06:30am 11.3 7.5 7.4 77 1.9 NNW 17 24 9 13 1021.3 1021.2 0.0
26/06:00am 11.3 8.9 7.0 75 2.1 NNW 9 15 5 8 1021.1 1021.0 0.0
26/05:30am 11.0 8.5 6.7 75 2.1 NNW 9 11 5 6 1020.6 1020.5 0.0
26/05:00am 10.6 8.6 7.1 79 1.7 N 7 15 4 8 1020.3 1020.2 0.0
26/04:30am 12.0 9.9 6.7 70 2.6 NW 7 13 4 7 1020.1 1020.0 0.0
26/04:00am 10.3 9.3 7.4 82 1.4 SW 2 7 1 4 1020.1 1020.0 0.0
26/03:30am 11.8 9.8 6.9 72 2.4 NW 7 11 4 6 1020.0 1019.9 0.0
26/03:00am 12.1 9.2 6.6 69 2.7 NNW 11 17 6 9 1020.1 1020.0 0.0
26/02:30am 11.4 9.0 6.9 74 2.2 NW 9 11 5 6 1020.1 1020.0 0.0
26/02:00am 12.4 9.5 6.7 68 2.8 NW 11 15 6 8 1020.5 1020.4 0.0
26/01:30am 11.3 9.4 7.4 77 1.9 NW 7 9 4 5 1020.4 1020.3 0.0
26/01:00am 12.6 10.0 7.8 72 2.4 WNW 11 15 6 8 1020.5 1020.4 0.0
26/12:30am 12.8 10.0 8.5 75 2.2 WNW 13 17 7 9 1020.8 1020.7 0.0
26/12:00am 13.2 10.5 9.1 76 2.1 WNW 13 19 7 10 1020.7 1020.6 0.0
 
Date/Time
EST
Tmp

°C
App
Tmp
°C
Dew
Point
°C
Rel
Hum
%
Delta-T

°C
Wind Press
QNH
hPa
Press
MSL
hPa
Rain
since
9 am
mm
Dir
 
Spd
km/h
Gust
km/h
Spd
kts
Gust
kts
25/11:30pm 13.3 11.3 10.1 81 1.7 WNW 11 17 6 9 1020.8 1020.7 0.0
25/11:00pm 13.7 11.4 10.5 81 1.7 WNW 13 19 7 10 1020.7 1020.6 0.0
25/10:30pm 14.2 12.4 10.7 79 1.9 WNW 11 15 6 8 1020.5 1020.4 0.0
25/10:00pm 14.6 13.2 10.9 78 2.0 WNW 9 13 5 7 1020.5 1020.4 0.0
25/09:30pm 15.2 13.4 10.8 75 2.4 WNW 11 17 6 9 1020.4 1020.3 0.0
25/09:00pm 15.7 14.2 10.7 72 2.7 WNW 9 13 5 7 1020.3 1020.2 0.0
25/08:30pm 15.1 14.1 10.9 76 2.3 WNW 7 13 4 7 1019.9 1019.8 0.0
25/08:00pm 15.9 15.0 11.4 74 2.5 WNW 7 13 4 7 1019.7 1019.5 0.0
25/07:30pm 16.6 15.3 11.3 71 2.9 W 9 13 5 7 1019.6 1019.4 0.0
25/07:00pm 16.7 15.9 11.7 72 2.8 W 7 11 4 6 1019.2 1019.1 0.0
25/06:30pm 16.8 16.0 11.8 72 2.8 W 7 11 4 6 1018.8 1018.7 0.0
25/06:00pm 17.4 16.7 12.1 71 3.0 W 7 15 4 8 1018.2 1018.1 0.0
25/05:30pm 19.6 18.3 11.4 59 4.6 W 9 15 5 8 1017.9 1017.7 0.0

Latest Capital City Observations: Canberra | Sydney | Melbourne | Brisbane | Adelaide | Perth | Hobart | Darwin

Other Formats:

Comma delimited format used in spreadsheet applications
http://www.bom.gov.au/fwo/IDQ60901/IDQ60901.94555.axf

JavaScript Object Notation format (JSON) in row-major order
http://www.bom.gov.au/fwo/IDQ60901/IDQ60901.94555.json